createdAt,value
2018-10-01T00:00:05.637Z,99378.13
2018-10-01T00:02:31.615Z,99373.08
2018-10-01T00:04:57.585Z,99372.99
2018-10-01T00:07:23.519Z,99371.72
2018-10-01T00:09:49.459Z,99376.25
2018-10-01T00:12:15.485Z,99376.60
2018-10-01T00:14:41.422Z,99373.53
2018-10-01T00:17:07.379Z,99383.70
2018-10-01T00:19:33.329Z,99386.24
2018-10-01T00:22:01.368Z,99380.45
2018-10-01T00:24:27.317Z,99386.45
2018-10-01T00:26:53.295Z,99386.70
2018-10-01T00:29:19.262Z,99384.04
2018-10-01T00:31:45.211Z,99385.47
2018-10-01T00:34:11.195Z,99386.02
2018-10-01T00:36:37.149Z,99380.78
2018-10-01T00:39:03.108Z,99381.69
2018-10-01T00:41:29.099Z,99378.59
2018-10-01T00:43:55.072Z,99367.81
2018-10-01T00:46:21.020Z,99366.34
2018-10-01T00:48:46.971Z,99363.77
2018-10-01T00:51:12.995Z,99362.56
2018-10-01T00:53:38.961Z,99356.02
2018-10-01T00:56:04.936Z,99354.13
2018-10-01T00:58:30.911Z,99353.13
2018-10-01T01:00:56.902Z,99351.85
2018-10-01T01:03:22.876Z,99353.61
2018-10-01T01:05:48.852Z,99352.41
2018-10-01T01:08:14.811Z,99348.17
2018-10-01T01:10:40.784Z,99345.17
2018-10-01T01:13:06.751Z,99340.78
2018-10-01T01:15:32.708Z,99343.81
2018-10-01T01:17:58.672Z,99340.55
2018-10-01T01:20:24.645Z,99343.81
2018-10-01T01:22:50.619Z,99340.91
2018-10-01T01:25:16.589Z,99347.95
2018-10-01T01:27:42.537Z,99345.34
2018-10-01T01:30:08.512Z,99345.27
2018-10-01T01:32:34.469Z,99347.88
2018-10-01T01:35:00.983Z,99343.58
2018-10-01T01:37:27.003Z,99339.34
2018-10-01T01:39:52.932Z,99343.16
2018-10-01T01:42:18.873Z,99336.41
2018-10-01T01:44:44.830Z,99329.41
2018-10-01T01:47:10.758Z,99328.53
2018-10-01T01:49:36.689Z,99327.69
2018-10-01T01:52:02.629Z,99324.98
2018-10-01T01:54:28.697Z,99322.15
2018-10-01T01:56:54.652Z,99323.29
2018-10-01T01:59:20.604Z,99315.77
2018-10-01T02:01:46.556Z,99309.70
2018-10-01T02:04:12.516Z,99320.67
2018-10-01T02:06:38.470Z,99309.70
2018-10-01T02:09:04.444Z,99308.34
2018-10-01T02:11:30.409Z,99308.08
2018-10-01T02:13:56.363Z,99315.05
2018-10-01T02:16:22.338Z,99312.38
2018-10-01T02:18:48.313Z,99316.84
2018-10-01T02:21:14.250Z,99310.23
2018-10-01T02:23:40.189Z,99309.29
2018-10-01T02:26:06.120Z,99315.66
2018-10-01T02:28:32.055Z,99311.02
2018-10-01T02:30:58.161Z,99308.92
2018-10-01T02:33:24.125Z,99301.21
2018-10-01T02:35:50.062Z,99296.31
2018-10-01T02:38:16.023Z,99305.44
2018-10-01T02:40:41.995Z,99306.31
2018-10-01T02:43:07.953Z,99295.32
2018-10-01T02:45:33.917Z,99295.64
2018-10-01T02:47:59.892Z,99288.33
2018-10-01T02:50:25.855Z,99290.73
2018-10-01T02:52:51.829Z,99285.85
2018-10-01T02:55:17.769Z,99288.83
2018-10-01T02:57:43.725Z,99288.48
2018-10-01T03:00:09.679Z,99293.23
2018-10-01T03:02:35.754Z,99291.56
2018-10-01T03:05:01.737Z,99284.91
2018-10-01T03:07:27.731Z,99283.04
2018-10-01T03:09:53.686Z,99275.95
2018-10-01T03:12:19.709Z,99275.19
2018-10-01T03:14:45.624Z,99277.67
2018-10-01T03:17:11.604Z,99270.80
2018-10-01T03:19:37.556Z,99266.27
2018-10-01T03:22:03.629Z,99261.98
2018-10-01T03:24:29.697Z,99267.48
2018-10-01T03:26:55.677Z,99264.68
2018-10-01T03:29:21.634Z,99256.47
2018-10-01T03:31:47.565Z,99247.54
2018-10-01T03:34:13.503Z,99247.02
2018-10-01T03:36:39.462Z,99254.73
2018-10-01T03:39:05.433Z,99253.37
2018-10-01T03:41:31.721Z,99245.04
2018-10-01T03:43:57.698Z,99245.34
2018-10-01T03:46:23.641Z,99244.34
2018-10-01T03:48:49.609Z,99246.95
2018-10-01T03:51:15.578Z,99243.45
2018-10-01T03:53:41.558Z,99244.72
2018-10-01T03:56:07.527Z,99242.21
2018-10-01T03:58:33.495Z,99247.73
2018-10-01T04:00:59.443Z,99247.15
2018-10-01T04:03:25.392Z,99257.70
2018-10-01T04:05:51.368Z,99244.61
2018-10-01T04:08:17.318Z,99239.66
2018-10-01T04:10:43.300Z,99240.09
2018-10-01T04:13:09.259Z,99239.78
2018-10-01T04:15:35.221Z,99243.34
2018-10-01T04:18:01.187Z,99246.87
2018-10-01T04:20:27.147Z,99245.55
2018-10-01T04:22:53.116Z,99239.74
2018-10-01T04:25:19.049Z,99240.81
2018-10-01T04:27:45.011Z,99239.31
2018-10-01T04:30:10.967Z,99238.30
2018-10-01T04:32:36.950Z,99248.42
2018-10-01T04:35:02.898Z,99244.90
2018-10-01T04:37:28.937Z,99243.76
2018-10-01T04:39:54.889Z,99239.56
2018-10-01T04:42:20.859Z,99249.65
2018-10-01T04:44:46.824Z,99256.47
2018-10-01T04:47:12.778Z,99263.03
2018-10-01T04:49:38.726Z,99254.57
2018-10-01T04:52:04.674Z,99260.04
2018-10-01T04:54:30.667Z,99260.80
2018-10-01T04:56:56.693Z,99268.95
2018-10-01T04:59:22.683Z,99276.66
2018-10-01T05:01:48.629Z,99271.67
2018-10-01T05:04:14.581Z,99266.71
2018-10-01T05:06:40.535Z,99274.09
2018-10-01T05:09:06.504Z,99276.80
2018-10-01T05:11:32.447Z,99274.81
2018-10-01T05:13:58.427Z,99280.52
2018-10-01T05:16:24.392Z,99282.61
2018-10-01T05:18:50.345Z,99279.95
2018-10-01T05:21:16.335Z,99288.41
2018-10-01T05:23:42.348Z,99280.70
2018-10-01T05:26:08.303Z,99281.43
2018-10-01T05:28:34.269Z,99284.53
2018-10-01T05:31:00.244Z,99290.11
2018-10-01T05:33:26.217Z,99284.41
2018-10-01T05:35:52.174Z,99286.69
2018-10-01T05:38:18.156Z,99284.20
2018-10-01T05:40:44.083Z,99283.34
2018-10-01T05:43:10.054Z,99295.97
2018-10-01T05:45:36.005Z,99305.41
2018-10-01T05:48:01.942Z,99310.19
2018-10-01T05:50:27.910Z,99311.33
2018-10-01T05:52:53.886Z,99316.34
2018-10-01T05:55:19.896Z,99318.17
2018-10-01T05:57:45.968Z,99316.47
2018-10-01T06:00:11.843Z,99316.09
2018-10-01T06:02:37.805Z,99324.20
2018-10-01T06:05:03.787Z,99328.83
2018-10-01T06:07:29.756Z,99329.06
2018-10-01T06:09:55.724Z,99332.17
2018-10-01T06:12:21.681Z,99335.64
2018-10-01T06:14:47.647Z,99331.60
2018-10-01T06:17:13.623Z,99335.88
2018-10-01T06:19:39.617Z,99339.12
2018-10-01T06:22:05.572Z,99342.28
2018-10-01T06:24:31.532Z,99350.37
2018-10-01T06:26:57.499Z,99356.64
2018-10-01T06:29:23.457Z,99362.85
2018-10-01T06:31:49.408Z,99360.48
2018-10-01T06:34:15.373Z,99356.75
2018-10-01T06:36:41.348Z,99368.80
2018-10-01T06:39:07.316Z,99364.41
2018-10-01T06:41:33.280Z,99367.45
2018-10-01T06:43:59.236Z,99359.54
2018-10-01T06:46:25.185Z,99366.09
2018-10-01T06:48:51.153Z,99364.09
2018-10-01T06:51:17.161Z,99368.79
2018-10-01T06:53:43.072Z,99372.73
2018-10-01T06:56:09.032Z,99367.34
2018-10-01T06:58:35.017Z,99368.75
2018-10-01T07:01:00.987Z,99372.25
2018-10-01T07:03:26.937Z,99370.61
2018-10-01T07:05:53.027Z,99381.65
2018-10-01T07:08:18.894Z,99377.03
2018-10-01T07:10:44.861Z,99386.88
2018-10-01T07:13:10.825Z,99396.38
2018-10-01T07:15:36.753Z,99398.50
2018-10-01T07:18:02.696Z,99403.74
2018-10-01T07:20:28.646Z,99405.59
2018-10-01T07:22:54.671Z,99401.13
2018-10-01T07:25:20.677Z,99405.61
2018-10-01T07:27:46.619Z,99403.58
2018-10-01T07:30:12.577Z,99401.51
2018-10-01T07:32:38.509Z,99403.48
2018-10-01T07:35:04.490Z,99400.00
2018-10-01T07:37:30.458Z,99394.03
2018-10-01T07:39:56.418Z,99391.58
2018-10-01T07:42:22.396Z,99395.95
2018-10-01T07:44:48.396Z,99399.78
2018-10-01T07:47:14.338Z,99414.45
2018-10-01T07:49:40.303Z,99418.69
2018-10-01T07:52:06.252Z,99418.11
2018-10-01T07:54:32.209Z,99420.17
2018-10-01T07:56:58.171Z,99421.30
2018-10-01T07:59:24.159Z,99416.05
2018-10-01T08:01:50.153Z,99413.02
2018-10-01T08:04:16.092Z,99415.33
2018-10-01T08:06:42.046Z,99417.11
2018-10-01T08:09:08.142Z,99420.91
2018-10-01T08:11:34.156Z,99423.74
2018-10-01T08:14:00.176Z,99431.19
2018-10-01T08:16:26.114Z,99432.70
2018-10-01T08:18:52.063Z,99426.77
2018-10-01T08:21:18.123Z,99435.55
2018-10-01T08:23:44.184Z,99446.59
2018-10-01T08:26:10.124Z,99448.92
2018-10-01T08:28:36.120Z,99447.37
2018-10-01T08:31:02.090Z,99444.83
2018-10-01T08:33:28.029Z,99437.77
2018-10-01T08:35:54.012Z,99432.05
2018-10-01T08:38:20.083Z,99434.69
2018-10-01T08:40:45.946Z,99436.55
2018-10-01T08:43:11.876Z,99439.87
2018-10-01T08:45:37.809Z,99444.48
2018-10-01T08:48:03.770Z,99455.34
2018-10-01T08:50:29.782Z,99449.55
2018-10-01T08:52:55.773Z,99443.06
2018-10-01T08:55:21.761Z,99441.50
2018-10-01T08:57:47.708Z,99451.17
2018-10-01T09:00:13.655Z,99455.91
2018-10-01T09:02:39.664Z,99458.25
2018-10-01T09:05:05.612Z,99454.91
2018-10-01T09:07:31.525Z,99456.36
2018-10-01T09:09:57.501Z,99451.24
2018-10-01T09:12:23.470Z,99448.45
2018-10-01T09:14:49.470Z,99445.56
2018-10-01T09:17:15.434Z,99449.79
2018-10-01T09:19:41.377Z,99450.02
2018-10-01T09:22:07.363Z,99452.61
2018-10-01T09:24:33.298Z,99450.00
2018-10-01T09:26:59.260Z,99450.89
2018-10-01T09:29:25.203Z,99450.98
2018-10-01T09:31:51.175Z,99464.96
2018-10-01T09:34:17.131Z,99460.91
2018-10-01T09:36:43.073Z,99455.08
2018-10-01T09:39:09.038Z,99448.68
2018-10-01T09:41:35.011Z,99445.58
2018-10-01T09:44:00.994Z,99449.42
2018-10-01T09:46:26.938Z,99449.59
2018-10-01T09:48:52.878Z,99450.48
2018-10-01T09:51:18.838Z,99451.84
2018-10-01T09:53:44.809Z,99459.99
2018-10-01T09:56:10.875Z,99459.78
2018-10-01T09:58:36.849Z,99461.70
2018-10-01T10:01:02.849Z,99464.28
2018-10-01T10:03:28.828Z,99456.61
2018-10-01T10:05:54.800Z,99461.80
2018-10-01T10:08:20.734Z,99463.25
2018-10-01T10:10:46.750Z,99465.67
2018-10-01T10:13:12.742Z,99466.10
2018-10-01T10:15:38.752Z,99468.36
2018-10-01T10:18:04.736Z,99468.41
2018-10-01T10:20:30.850Z,99466.41
2018-10-01T10:22:56.721Z,99471.42
2018-10-01T10:25:22.657Z,99478.67
2018-10-01T10:27:48.615Z,99477.86
2018-10-01T10:30:14.589Z,99467.33
2018-10-01T10:32:40.529Z,99475.43
2018-10-01T10:35:06.493Z,99477.69
2018-10-01T10:37:32.441Z,99468.95
2018-10-01T10:39:58.378Z,99475.27
2018-10-01T10:42:24.327Z,99469.53
2018-10-01T10:44:50.293Z,99472.68
2018-10-01T10:47:16.243Z,99475.37
2018-10-01T10:49:42.201Z,99473.61
2018-10-01T10:52:08.157Z,99472.02
2018-10-01T10:54:34.132Z,99470.61
2018-10-01T10:57:00.108Z,99473.00
2018-10-01T10:59:26.092Z,99462.52
2018-10-01T11:01:52.053Z,99464.20
2018-10-01T11:04:18.002Z,99467.37
2018-10-01T11:06:43.977Z,99467.45
2018-10-01T11:09:09.935Z,99475.66
2018-10-01T11:11:35.912Z,99466.05
2018-10-01T11:14:02.040Z,99467.91
2018-10-01T11:16:27.873Z,99469.97
2018-10-01T11:18:54.020Z,99478.30
2018-10-01T11:21:19.867Z,99474.50
2018-10-01T11:23:45.903Z,99473.85
2018-10-01T11:26:11.888Z,99475.80
2018-10-01T11:28:37.928Z,99475.08
2018-10-01T11:31:03.912Z,99475.23
2018-10-01T11:33:29.924Z,99463.72
2018-10-01T11:35:55.845Z,99466.53
2018-10-01T11:38:21.822Z,99462.97
2018-10-01T11:40:47.803Z,99472.44
2018-10-01T11:43:13.772Z,99476.35
2018-10-01T11:45:39.788Z,99472.44
2018-10-01T11:48:05.765Z,99469.70
2018-10-01T11:50:31.745Z,99478.55
2018-10-01T11:52:57.701Z,99472.56
2018-10-01T11:55:23.640Z,99477.19
2018-10-01T11:57:49.672Z,99476.75
2018-10-01T12:00:15.574Z,99477.02
2018-10-01T12:02:41.526Z,99478.04
2018-10-01T12:05:07.500Z,99477.09
2018-10-01T12:07:33.467Z,99474.94
2018-10-01T12:09:59.447Z,99473.55
2018-10-01T12:12:25.377Z,99477.22
2018-10-01T12:14:51.328Z,99484.86
2018-10-01T12:17:17.296Z,99479.91
2018-10-01T12:19:43.595Z,99484.33
2018-10-01T12:22:09.607Z,99479.09
2018-10-01T12:24:35.614Z,99482.87
2018-10-01T12:27:01.598Z,99480.38
2018-10-01T12:29:27.594Z,99481.05
2018-10-01T12:31:53.548Z,99478.66
2018-10-01T12:34:19.572Z,99483.46
2018-10-01T12:36:45.535Z,99492.80
2018-10-01T12:39:11.534Z,99484.81
2018-10-01T12:41:37.451Z,99487.68
2018-10-01T12:44:03.407Z,99485.50
2018-10-01T12:46:29.353Z,99487.31
2018-10-01T12:48:55.298Z,99490.94
2018-10-01T12:51:21.325Z,99490.00
2018-10-01T12:53:47.237Z,99487.32
2018-10-01T12:56:13.200Z,99486.95
2018-10-01T12:58:39.158Z,99481.23
2018-10-01T13:01:05.243Z,99481.64
2018-10-01T13:03:31.181Z,99487.02
2018-10-01T13:05:57.143Z,99486.06
2018-10-01T13:08:23.115Z,99484.83
2018-10-01T13:10:49.068Z,99492.13
2018-10-01T13:13:15.015Z,99487.88
2018-10-01T13:15:40.953Z,99487.56
2018-10-01T13:18:06.957Z,99493.05
2018-10-01T13:20:32.895Z,99499.69
2018-10-01T13:22:58.870Z,99495.10
2018-10-01T13:25:24.806Z,99499.84
2018-10-01T13:27:50.765Z,99506.56
2018-10-01T13:30:16.833Z,99501.52
2018-10-01T13:32:42.706Z,99501.56
2018-10-01T13:35:08.663Z,99504.63
2018-10-01T13:37:34.623Z,99510.78
2018-10-01T13:40:00.580Z,99505.37
2018-10-01T13:42:26.521Z,99502.20
2018-10-01T13:44:52.790Z,99512.31
2018-10-01T13:47:18.764Z,99515.65
2018-10-01T13:49:44.738Z,99522.15
2018-10-01T13:52:10.746Z,99519.97
2018-10-01T13:54:36.808Z,99519.00
2018-10-01T13:57:02.743Z,99523.50
2018-10-01T13:59:28.739Z,99522.63
2018-10-01T14:01:54.700Z,99520.03
2018-10-01T14:04:20.688Z,99519.64
2018-10-01T14:06:46.654Z,99519.80
2018-10-01T14:09:12.641Z,99514.69
2018-10-01T14:11:38.606Z,99519.00
2018-10-01T14:14:04.564Z,99519.15
2018-10-01T14:16:30.569Z,99522.91
2018-10-01T14:18:56.604Z,99522.30
2018-10-01T14:21:22.726Z,99529.98
2018-10-01T14:23:48.708Z,99527.16
2018-10-01T14:26:14.695Z,99531.11
2018-10-01T14:28:40.654Z,99531.91
2018-10-01T14:31:06.628Z,99534.77
2018-10-01T14:33:32.611Z,99536.98
2018-10-01T14:35:58.685Z,99539.73
2018-10-01T14:38:25.202Z,99537.72
2018-10-01T14:40:51.247Z,99543.83
2018-10-01T14:43:17.209Z,99549.72
2018-10-01T14:45:43.259Z,99538.78
2018-10-01T14:48:09.333Z,99545.46
2018-10-01T14:50:36.009Z,99547.74
2018-10-01T14:53:01.992Z,99551.98
2018-10-01T14:55:27.977Z,99549.81
2018-10-01T14:57:53.950Z,99557.84
2018-10-01T15:00:20.026Z,99555.18
2018-10-01T15:02:45.931Z,99556.35
2018-10-01T15:05:11.901Z,99563.83
2018-10-01T15:07:37.841Z,99567.57
2018-10-01T15:10:03.812Z,99569.75
2018-10-01T15:12:29.783Z,99576.08
2018-10-01T15:14:55.776Z,99589.98
2018-10-01T15:17:21.751Z,99590.19
2018-10-01T15:19:47.745Z,99596.17
2018-10-01T15:22:13.763Z,99595.43
2018-10-01T15:24:39.758Z,99598.09
2018-10-01T15:27:05.821Z,99599.70
2018-10-01T15:29:31.797Z,99602.08
2018-10-01T15:31:57.799Z,99603.25
2018-10-01T15:34:23.823Z,99609.31
2018-10-01T15:36:49.778Z,99609.80
2018-10-01T15:39:15.880Z,99610.13
2018-10-01T15:41:41.904Z,99611.36
2018-10-01T15:44:07.893Z,99613.91
2018-10-01T15:46:33.993Z,99614.42
2018-10-01T15:48:59.953Z,99613.20
2018-10-01T15:51:25.947Z,99611.30
2018-10-01T15:53:51.917Z,99606.50
2018-10-01T15:56:17.895Z,99607.97
2018-10-01T15:58:43.857Z,99608.81
2018-10-01T16:01:09.838Z,99618.95
2018-10-01T16:03:35.777Z,99613.73
2018-10-01T16:06:01.743Z,99608.72
2018-10-01T16:08:27.888Z,99615.01
2018-10-01T16:10:53.874Z,99617.15
2018-10-01T16:13:19.840Z,99618.05
2018-10-01T16:15:45.777Z,99616.12
2018-10-01T16:18:11.817Z,99621.30
2018-10-01T16:20:37.692Z,99621.59
2018-10-01T16:23:03.679Z,99623.20
2018-10-01T16:25:29.632Z,99624.85
2018-10-01T16:27:55.567Z,99624.70
2018-10-01T16:30:21.588Z,99624.70
2018-10-01T16:32:47.542Z,99622.82
2018-10-01T16:35:13.542Z,99624.28
2018-10-01T16:37:39.488Z,99630.03
2018-10-01T16:40:05.726Z,99630.61
2018-10-01T16:42:31.703Z,99635.61
2018-10-01T16:44:57.691Z,99638.22
2018-10-01T16:47:23.677Z,99636.52
2018-10-01T16:49:49.647Z,99642.55
2018-10-01T16:52:15.753Z,99645.58
2018-10-01T16:54:41.682Z,99649.46
2018-10-01T16:57:07.714Z,99655.95
2018-10-01T16:59:33.657Z,99661.91
2018-10-01T17:01:59.605Z,99665.86
2018-10-01T17:04:25.583Z,99662.11
2018-10-01T17:06:51.612Z,99659.27
2018-10-01T17:09:17.583Z,99663.39
2018-10-01T17:11:43.534Z,99668.59
2018-10-01T17:14:09.513Z,99669.17
2018-10-01T17:16:35.497Z,99670.63
2018-10-01T17:19:01.481Z,99680.28
2018-10-01T17:21:27.455Z,99683.83
2018-10-01T17:23:53.422Z,99690.13
2018-10-01T17:26:19.387Z,99682.36
2018-10-01T17:28:45.367Z,99690.21
2018-10-01T17:31:11.333Z,99695.28
2018-10-01T17:33:37.301Z,99694.52
2018-10-01T17:36:03.315Z,99689.41
2018-10-01T17:38:29.347Z,99696.14
2018-10-01T17:40:55.304Z,99699.53
2018-10-01T17:43:21.284Z,99705.55
2018-10-01T17:45:47.392Z,99708.91
2018-10-01T17:48:13.378Z,99716.58
2018-10-01T17:50:39.401Z,99712.64
2018-10-01T17:53:05.379Z,99712.59
2018-10-01T17:55:31.500Z,99717.84
2018-10-01T17:57:57.466Z,99724.80
2018-10-01T18:00:23.512Z,99729.40
2018-10-01T18:02:49.437Z,99730.91
2018-10-01T18:05:15.389Z,99732.00
2018-10-01T18:07:41.380Z,99727.54
2018-10-01T18:10:07.336Z,99729.63
2018-10-01T18:12:33.317Z,99729.89
2018-10-01T18:14:59.288Z,99727.88
2018-10-01T18:17:25.302Z,99731.95
2018-10-01T18:19:51.271Z,99734.42
2018-10-01T18:22:17.233Z,99734.46
2018-10-01T18:24:43.211Z,99727.31
2018-10-01T18:27:09.166Z,99731.23
2018-10-01T18:29:35.109Z,99733.65
2018-10-01T18:32:01.076Z,99739.75
2018-10-01T18:34:27.017Z,99744.81
2018-10-01T18:36:52.981Z,99747.45
2018-10-01T18:39:19.012Z,99742.73
2018-10-01T18:41:45.068Z,99748.35
2018-10-01T18:44:11.169Z,99749.25
2018-10-01T18:46:39.221Z,99753.46
2018-10-01T18:49:05.171Z,99750.75
2018-10-01T18:51:31.123Z,99751.78
2018-10-01T18:53:57.155Z,99752.03
2018-10-01T18:56:23.043Z,99755.53
2018-10-01T18:58:48.986Z,99750.75
2018-10-01T19:01:14.966Z,99758.25
2018-10-01T19:03:40.936Z,99767.83
2018-10-01T19:06:06.959Z,99777.83
2018-10-01T19:08:32.897Z,99775.48
2018-10-01T19:10:58.884Z,99779.61
2018-10-01T19:13:24.862Z,99785.53
2018-10-01T19:15:50.850Z,99772.00
2018-10-01T19:18:16.922Z,99780.05
2018-10-01T19:20:42.845Z,99789.53
2018-10-01T19:23:08.815Z,99788.67
2018-10-01T19:25:34.772Z,99782.84
2018-10-01T19:28:00.817Z,99784.12
2018-10-01T19:30:26.815Z,99787.95
2018-10-01T19:32:52.719Z,99786.26
2018-10-01T19:35:18.738Z,99782.54
2018-10-01T19:37:44.674Z,99797.00
2018-10-01T19:40:10.636Z,99799.06
2018-10-01T19:42:36.659Z,99808.89
2018-10-01T19:45:02.676Z,99811.04
2018-10-01T19:47:28.642Z,99810.11
2018-10-01T19:49:54.573Z,99813.52
2018-10-01T19:52:20.595Z,99814.66
2018-10-01T19:54:46.591Z,99820.93
2018-10-01T19:57:12.689Z,99821.16
2018-10-01T19:59:38.547Z,99827.19
2018-10-01T20:02:04.597Z,99825.35
2018-10-01T20:04:30.605Z,99828.02
2018-10-01T20:06:56.585Z,99833.28
2018-10-01T20:09:22.646Z,99834.20
2018-10-01T20:11:48.577Z,99829.84
2018-10-01T20:14:14.539Z,99833.55
2018-10-01T20:16:40.529Z,99828.83
2018-10-01T20:19:06.510Z,99841.59
2018-10-01T20:21:32.470Z,99846.03
2018-10-01T20:23:58.472Z,99842.28
2018-10-01T20:26:24.468Z,99842.68
2018-10-01T20:28:50.690Z,99842.28
2018-10-01T20:31:16.388Z,99846.06
2018-10-01T20:33:42.400Z,99845.48
2018-10-01T20:36:08.465Z,99857.52
2018-10-01T20:38:34.349Z,99852.03
2018-10-01T20:41:00.472Z,99858.95
2018-10-01T20:43:26.284Z,99853.12
2018-10-01T20:45:52.314Z,99848.98
2018-10-01T20:48:18.293Z,99853.77
2018-10-01T20:50:44.238Z,99850.14
2018-10-01T20:53:10.328Z,99852.84
2018-10-01T20:55:36.241Z,99843.14
2018-10-01T20:58:02.266Z,99855.18
2018-10-01T21:00:28.263Z,99860.25
2018-10-01T21:02:54.252Z,99865.80
2018-10-01T21:05:20.201Z,99866.00
2018-10-01T21:07:46.185Z,99864.80
2018-10-01T21:10:12.173Z,99875.78
2018-10-01T21:12:38.119Z,99869.75
2018-10-01T21:15:04.094Z,99873.98
2018-10-01T21:17:30.228Z,99876.76
2018-10-01T21:19:56.210Z,99876.36
2018-10-01T21:22:22.243Z,99883.09
2018-10-01T21:27:20.576Z,99887.14
2018-10-01T21:29:46.525Z,99889.97
2018-10-01T21:32:12.505Z,99892.91
2018-10-01T21:34:38.492Z,99894.33
2018-10-01T21:37:04.434Z,99905.63
2018-10-01T21:39:30.402Z,99910.81
2018-10-01T21:41:56.381Z,99912.13
2018-10-01T21:44:22.361Z,99909.29
2018-10-01T21:46:48.350Z,99908.58
2018-10-01T21:49:14.322Z,99908.30
2018-10-01T21:51:40.271Z,99911.06
2018-10-01T21:54:06.267Z,99908.97
2018-10-01T21:56:32.234Z,99911.88
2018-10-01T21:58:58.192Z,99911.84
2018-10-01T22:01:24.127Z,99928.78
2018-10-01T22:03:50.062Z,99920.48
2018-10-01T22:06:16.009Z,99919.17
2018-10-01T22:08:41.965Z,99925.77
2018-10-01T22:11:07.900Z,99925.63
2018-10-01T22:13:33.825Z,99927.45
2018-10-01T22:15:59.776Z,99929.08
2018-10-01T22:18:25.727Z,99934.25
2018-10-01T22:20:51.661Z,99937.62
2018-10-01T22:23:17.599Z,99929.90
2018-10-01T22:25:43.549Z,99943.27
2018-10-01T22:28:09.488Z,99932.34
2018-10-01T22:30:35.449Z,99937.84
2018-10-01T22:33:01.458Z,99937.78
2018-10-01T22:35:27.431Z,99939.25
2018-10-01T22:37:53.378Z,99940.39
2018-10-01T22:40:19.332Z,99938.46
2018-10-01T22:42:45.292Z,99937.19
2018-10-01T22:45:11.261Z,99937.84
2018-10-01T22:47:37.225Z,99937.43
2018-10-01T22:50:03.189Z,99931.91
2018-10-01T22:52:29.145Z,99938.80
2018-10-01T22:54:55.129Z,99938.41
2018-10-01T22:57:21.096Z,99936.05
2018-10-01T22:59:47.022Z,99937.81
2018-10-01T23:02:12.957Z,99944.58
2018-10-01T23:04:38.889Z,99937.55
2018-10-01T23:07:04.826Z,99939.02
2018-10-01T23:09:30.760Z,99943.66
2018-10-01T23:11:56.685Z,99940.16
2018-10-01T23:14:22.615Z,99951.86
2018-10-01T23:16:48.542Z,99954.86
2018-10-01T23:19:14.474Z,99956.28
2018-10-01T23:21:40.434Z,99958.73
2018-10-01T23:24:06.392Z,99955.67
2018-10-01T23:26:32.314Z,99959.80
2018-10-01T23:28:58.263Z,99960.62
2018-10-01T23:31:24.197Z,99964.23
2018-10-01T23:33:50.117Z,99963.69
2018-10-01T23:36:16.052Z,99967.55
2018-10-01T23:38:41.980Z,99965.14
2018-10-01T23:41:07.952Z,99964.87
2018-10-01T23:43:33.898Z,99963.39
2018-10-01T23:45:59.830Z,99965.18
2018-10-01T23:48:25.779Z,99967.50
2018-10-01T23:50:51.746Z,99965.41
2018-10-01T23:53:17.681Z,99979.20
2018-10-01T23:55:43.657Z,99978.45
2018-10-01T23:58:09.608Z,99985.05
